Overview Statistics Trail Chart Weather Telemetry Raw packets
 

This is the latest recevied weather packets stored in our database for station/object YD2CLX-11. If no packets are shown the sender has not sent any weather packets the latest 10 day(s).

<< 12 13 14 15 16 17 18 >>
Time Temp. Humidity Pressure Rain* Wind** Luminosity Snow
1788401348 33.89° C 49% 1000.6 hPa - - - -
1788400747 33.33° C 49% 1000.8 hPa - - - -
1788400145 33.89° C 50% 1000.8 hPa - - - -
1788399543 33.33° C 51% 1000.9 hPa - - - -
1788398942 33.33° C 50% 1000.9 hPa - - - -
1788398342 32.22° C 54% 1001 hPa - - - -
1788397740 32.22° C 52% 1001 hPa - - - -
1788397139 32.22° C 55% 1001 hPa - - - -
1788396537 32.22° C 55% 1000.9 hPa - - - -
1788395936 31.67° C 56% 1000.8 hPa - - - -
1788395335 30.56° C 60% 1000.6 hPa - - - -
1788394733 30° C 62% 1000.7 hPa - - - -
1788394130 29.44° C 65% 1000.7 hPa - - - -
1788393530 30.56° C 64% 1000.6 hPa - - - -
1788392929 29.44° C 69% 1000.7 hPa - - - -
1788392328 28.89° C 72% 1000.5 hPa - - - -
1788391727 27.22° C 74% 1000.5 hPa - - - -
1788391126 26.67° C 75% 1000.4 hPa - - - -
1788390524 26.11° C 76% 1000.4 hPa - - - -
1788389923 24.44° C 80% 1000.3 hPa - - - -
1788389322 22.78° C 85% 1000.3 hPa - - - -
1788388721 22.22° C 86% 1000.1 hPa - - - -
1788388120 22.22° C 86% 1000 hPa - - - -
1788387519 22.22° C 87% 999.9 hPa - - - -
1788386918 21.67° C 87% 999.7 hPa - - - -

* Rain since midnight (hover to see other rain measurements)
** Current wind speed in m/s (hover to see current wind gust speed)